sensor_id;sensor_type;location;lat;lon;timestamp;P1;durP1;ratioP1;P2;durP2;ratioP2
4786;SDS011;62338;48.832;9.422;2023-06-04T00:00:41;5.10;;;2.60;;
4786;SDS011;62338;48.832;9.422;2023-06-04T00:02:43;5.93;;;2.50;;
4786;SDS011;62338;48.832;9.422;2023-06-04T00:04:45;5.13;;;2.50;;
4786;SDS011;62338;48.832;9.422;2023-06-04T00:06:47;7.93;;;2.40;;
4786;SDS011;62338;48.832;9.422;2023-06-04T00:08:49;7.27;;;2.47;;
4786;SDS011;62338;48.832;9.422;2023-06-04T00:10:51;5.17;;;2.30;;
4786;SDS011;62338;48.832;9.422;2023-06-04T00:12:52;4.43;;;2.00;;
4786;SDS011;62338;48.832;9.422;2023-06-04T00:14:54;7.87;;;2.83;;
4786;SDS011;62338;48.832;9.422;2023-06-04T00:16:56;5.70;;;2.43;;
4786;SDS011;62338;48.832;9.422;2023-06-04T00:18:58;3.83;;;2.20;;
4786;SDS011;62338;48.832;9.422;2023-06-04T00:20:59;4.40;;;2.30;;
4786;SDS011;62338;48.832;9.422;2023-06-04T00:23:01;4.17;;;2.20;;
4786;SDS011;62338;48.832;9.422;2023-06-04T00:25:03;4.30;;;2.10;;
4786;SDS011;62338;48.832;9.422;2023-06-04T00:27:06;6.40;;;2.37;;
4786;SDS011;62338;48.832;9.422;2023-06-04T00:29:09;5.43;;;2.60;;
4786;SDS011;62338;48.832;9.422;2023-06-04T00:31:11;5.17;;;2.10;;
4786;SDS011;62338;48.832;9.422;2023-06-04T00:33:13;5.73;;;2.17;;
4786;SDS011;62338;48.832;9.422;2023-06-04T00:35:16;4.13;;;2.20;;
4786;SDS011;62338;48.832;9.422;2023-06-04T00:37:17;5.70;;;2.63;;
4786;SDS011;62338;48.832;9.422;2023-06-04T00:39:19;4.07;;;2.10;;
4786;SDS011;62338;48.832;9.422;2023-06-04T00:41:21;4.27;;;2.20;;
4786;SDS011;62338;48.832;9.422;2023-06-04T00:43:23;6.90;;;2.43;;
4786;SDS011;62338;48.832;9.422;2023-06-04T00:45:28;10.37;;;2.47;;
4786;SDS011;62338;48.832;9.422;2023-06-04T00:47:32;2.60;;;1.50;;
4786;SDS011;62338;48.832;9.422;2023-06-04T00:49:34;3.97;;;2.00;;
4786;SDS011;62338;48.832;9.422;2023-06-04T00:51:36;5.17;;;2.20;;
4786;SDS011;62338;48.832;9.422;2023-06-04T00:53:37;5.53;;;2.27;;
4786;SDS011;62338;48.832;9.422;2023-06-04T00:55:40;5.57;;;2.33;;
4786;SDS011;62338;48.832;9.422;2023-06-04T00:57:42;6.47;;;2.00;;
4786;SDS011;62338;48.832;9.422;2023-06-04T00:59:44;4.80;;;2.07;;
4786;SDS011;62338;48.832;9.422;2023-06-04T01:04:03;3.00;;;1.70;;
4786;SDS011;62338;48.832;9.422;2023-06-04T01:08:23;4.33;;;1.80;;
4786;SDS011;62338;48.832;9.422;2023-06-04T01:10:25;4.03;;;2.40;;
4786;SDS011;62338;48.832;9.422;2023-06-04T01:12:27;4.23;;;2.50;;
4786;SDS011;62338;48.832;9.422;2023-06-04T01:14:28;4.53;;;1.47;;
4786;SDS011;62338;48.832;9.422;2023-06-04T01:16:33;4.60;;;1.90;;
4786;SDS011;62338;48.832;9.422;2023-06-04T01:19:05;4.83;;;1.80;;
4786;SDS011;62338;48.832;9.422;2023-06-04T01:21:22;3.00;;;1.80;;
4786;SDS011;62338;48.832;9.422;2023-06-04T01:25:43;4.00;;;2.03;;
4786;SDS011;62338;48.832;9.422;2023-06-04T01:27:50;4.97;;;2.67;;
4786;SDS011;62338;48.832;9.422;2023-06-04T01:29:56;4.30;;;1.80;;
4786;SDS011;62338;48.832;9.422;2023-06-04T01:31:59;3.90;;;2.20;;
4786;SDS011;62338;48.832;9.422;2023-06-04T01:34:01;3.63;;;1.70;;
4786;SDS011;62338;48.832;9.422;2023-06-04T01:36:03;4.67;;;1.90;;
4786;SDS011;62338;48.832;9.422;2023-06-04T01:38:05;5.90;;;2.03;;
4786;SDS011;62338;48.832;9.422;2023-06-04T01:40:08;4.20;;;1.70;;
4786;SDS011;62338;48.832;9.422;2023-06-04T01:42:10;4.70;;;1.77;;
4786;SDS011;62338;48.832;9.422;2023-06-04T01:44:12;3.67;;;1.97;;
4786;SDS011;62338;48.832;9.422;2023-06-04T01:46:13;4.03;;;1.97;;
4786;SDS011;62338;48.832;9.422;2023-06-04T01:48:15;3.60;;;1.63;;
4786;SDS011;62338;48.832;9.422;2023-06-04T01:50:17;3.30;;;1.90;;
4786;SDS011;62338;48.832;9.422;2023-06-04T01:52:19;4.33;;;2.37;;
4786;SDS011;62338;48.832;9.422;2023-06-04T01:54:22;5.10;;;2.03;;
4786;SDS011;62338;48.832;9.422;2023-06-04T01:56:24;3.30;;;2.10;;
4786;SDS011;62338;48.832;9.422;2023-06-04T01:58:26;6.90;;;1.80;;
4786;SDS011;62338;48.832;9.422;2023-06-04T02:00:28;3.00;;;1.57;;
4786;SDS011;62338;48.832;9.422;2023-06-04T02:02:30;7.40;;;1.83;;
4786;SDS011;62338;48.832;9.422;2023-06-04T02:04:32;3.30;;;1.83;;
4786;SDS011;62338;48.832;9.422;2023-06-04T02:06:37;4.00;;;2.20;;
4786;SDS011;62338;48.832;9.422;2023-06-04T02:08:39;3.37;;;1.90;;
4786;SDS011;62338;48.832;9.422;2023-06-04T02:10:43;3.93;;;1.90;;
4786;SDS011;62338;48.832;9.422;2023-06-04T02:12:55;3.93;;;1.80;;
4786;SDS011;62338;48.832;9.422;2023-06-04T02:14:59;4.30;;;2.03;;
4786;SDS011;62338;48.832;9.422;2023-06-04T02:17:01;3.47;;;1.87;;
4786;SDS011;62338;48.832;9.422;2023-06-04T02:19:03;4.70;;;1.80;;
4786;SDS011;62338;48.832;9.422;2023-06-04T02:21:06;4.77;;;2.03;;
4786;SDS011;62338;48.832;9.422;2023-06-04T02:23:08;3.90;;;2.00;;
4786;SDS011;62338;48.832;9.422;2023-06-04T02:25:10;3.40;;;1.63;;
4786;SDS011;62338;48.832;9.422;2023-06-04T02:27:12;4.63;;;1.80;;
4786;SDS011;62338;48.832;9.422;2023-06-04T02:29:14;5.37;;;1.90;;
4786;SDS011;62338;48.832;9.422;2023-06-04T02:31:16;3.50;;;1.70;;
4786;SDS011;62338;48.832;9.422;2023-06-04T02:33:18;3.23;;;1.70;;
4786;SDS011;62338;48.832;9.422;2023-06-04T02:35:20;3.80;;;1.80;;
4786;SDS011;62338;48.832;9.422;2023-06-04T02:37:24;3.67;;;1.70;;
4786;SDS011;62338;48.832;9.422;2023-06-04T02:39:28;3.80;;;1.77;;
4786;SDS011;62338;48.832;9.422;2023-06-04T02:41:30;3.07;;;1.80;;
4786;SDS011;62338;48.832;9.422;2023-06-04T02:43:31;3.77;;;1.90;;
4786;SDS011;62338;48.832;9.422;2023-06-04T02:45:33;3.53;;;1.77;;
4786;SDS011;62338;48.832;9.422;2023-06-04T02:47:35;3.20;;;1.53;;
4786;SDS011;62338;48.832;9.422;2023-06-04T02:49:37;3.70;;;1.87;;
4786;SDS011;62338;48.832;9.422;2023-06-04T02:51:39;3.70;;;1.77;;
4786;SDS011;62338;48.832;9.422;2023-06-04T02:53:41;3.23;;;1.57;;
4786;SDS011;62338;48.832;9.422;2023-06-04T02:55:43;3.43;;;1.70;;
4786;SDS011;62338;48.832;9.422;2023-06-04T02:57:45;3.50;;;1.83;;
4786;SDS011;62338;48.832;9.422;2023-06-04T02:59:47;3.63;;;1.80;;
4786;SDS011;62338;48.832;9.422;2023-06-04T03:01:49;3.47;;;1.80;;
4786;SDS011;62338;48.832;9.422;2023-06-04T03:03:51;4.17;;;1.90;;
4786;SDS011;62338;48.832;9.422;2023-06-04T03:05:54;3.37;;;1.53;;
4786;SDS011;62338;48.832;9.422;2023-06-04T03:07:56;3.17;;;1.50;;
4786;SDS011;62338;48.832;9.422;2023-06-04T03:09:59;3.20;;;1.60;;
4786;SDS011;62338;48.832;9.422;2023-06-04T03:12:01;6.13;;;2.27;;
4786;SDS011;62338;48.832;9.422;2023-06-04T03:14:04;4.07;;;1.63;;
4786;SDS011;62338;48.832;9.422;2023-06-04T03:16:05;6.80;;;2.10;;
4786;SDS011;62338;48.832;9.422;2023-06-04T03:18:13;7.13;;;1.60;;
4786;SDS011;62338;48.832;9.422;2023-06-04T03:20:15;8.10;;;1.97;;
4786;SDS011;62338;48.832;9.422;2023-06-04T03:22:16;5.17;;;2.00;;
4786;SDS011;62338;48.832;9.422;2023-06-04T03:24:19;7.43;;;1.77;;
4786;SDS011;62338;48.832;9.422;2023-06-04T03:26:21;3.53;;;1.60;;
4786;SDS011;62338;48.832;9.422;2023-06-04T03:28:22;4.20;;;1.70;;
4786;SDS011;62338;48.832;9.422;2023-06-04T03:30:24;7.23;;;1.67;;
4786;SDS011;62338;48.832;9.422;2023-06-04T03:32:26;2.50;;;1.20;;
4786;SDS011;62338;48.832;9.422;2023-06-04T03:34:28;3.67;;;1.83;;
4786;SDS011;62338;48.832;9.422;2023-06-04T03:36:35;3.17;;;1.60;;
4786;SDS011;62338;48.832;9.422;2023-06-04T03:38:39;3.30;;;2.13;;
4786;SDS011;62338;48.832;9.422;2023-06-04T03:40:41;6.93;;;2.20;;
4786;SDS011;62338;48.832;9.422;2023-06-04T03:42:43;7.13;;;2.30;;
4786;SDS011;62338;48.832;9.422;2023-06-04T03:44:45;3.90;;;1.60;;
4786;SDS011;62338;48.832;9.422;2023-06-04T03:46:47;3.90;;;1.37;;
4786;SDS011;62338;48.832;9.422;2023-06-04T03:48:49;2.93;;;1.50;;
4786;SDS011;62338;48.832;9.422;2023-06-04T03:50:51;4.20;;;1.53;;
4786;SDS011;62338;48.832;9.422;2023-06-04T03:52:52;5.83;;;1.80;;
4786;SDS011;62338;48.832;9.422;2023-06-04T03:54:54;4.10;;;1.87;;
4786;SDS011;62338;48.832;9.422;2023-06-04T03:56:56;4.90;;;1.50;;
4786;SDS011;62338;48.832;9.422;2023-06-04T03:58:58;4.70;;;1.80;;
4786;SDS011;62338;48.832;9.422;2023-06-04T04:01:00;3.60;;;1.70;;
4786;SDS011;62338;48.832;9.422;2023-06-04T04:03:02;2.90;;;1.80;;
4786;SDS011;62338;48.832;9.422;2023-06-04T04:05:04;3.90;;;2.00;;
4786;SDS011;62338;48.832;9.422;2023-06-04T04:07:06;2.77;;;1.37;;
4786;SDS011;62338;48.832;9.422;2023-06-04T04:09:08;5.43;;;2.60;;
4786;SDS011;62338;48.832;9.422;2023-06-04T04:11:16;3.47;;;1.60;;
4786;SDS011;62338;48.832;9.422;2023-06-04T04:13:18;5.20;;;1.80;;
4786;SDS011;62338;48.832;9.422;2023-06-04T04:15:20;3.13;;;1.70;;
4786;SDS011;62338;48.832;9.422;2023-06-04T04:17:22;3.10;;;1.60;;
4786;SDS011;62338;48.832;9.422;2023-06-04T04:19:24;3.37;;;2.00;;
4786;SDS011;62338;48.832;9.422;2023-06-04T04:21:27;4.03;;;1.80;;
4786;SDS011;62338;48.832;9.422;2023-06-04T04:23:28;3.37;;;1.60;;
4786;SDS011;62338;48.832;9.422;2023-06-04T04:25:31;3.20;;;1.73;;
4786;SDS011;62338;48.832;9.422;2023-06-04T04:27:33;3.90;;;1.90;;
4786;SDS011;62338;48.832;9.422;2023-06-04T04:29:39;3.43;;;1.57;;
4786;SDS011;62338;48.832;9.422;2023-06-04T04:31:44;5.03;;;1.80;;
4786;SDS011;62338;48.832;9.422;2023-06-04T04:33:49;2.87;;;1.53;;
4786;SDS011;62338;48.832;9.422;2023-06-04T04:35:52;3.37;;;1.67;;
4786;SDS011;62338;48.832;9.422;2023-06-04T04:37:54;3.57;;;1.80;;
4786;SDS011;62338;48.832;9.422;2023-06-04T04:39:56;4.20;;;1.70;;
4786;SDS011;62338;48.832;9.422;2023-06-04T04:41:58;3.37;;;1.67;;
4786;SDS011;62338;48.832;9.422;2023-06-04T04:44:03;8.83;;;1.80;;
4786;SDS011;62338;48.832;9.422;2023-06-04T04:46:06;3.03;;;1.73;;
4786;SDS011;62338;48.832;9.422;2023-06-04T04:48:08;4.00;;;1.73;;
4786;SDS011;62338;48.832;9.422;2023-06-04T04:50:10;3.40;;;1.60;;
4786;SDS011;62338;48.832;9.422;2023-06-04T04:52:12;2.90;;;1.57;;
4786;SDS011;62338;48.832;9.422;2023-06-04T04:54:13;2.50;;;1.23;;
4786;SDS011;62338;48.832;9.422;2023-06-04T04:56:15;5.57;;;2.03;;
4786;SDS011;62338;48.832;9.422;2023-06-04T04:58:17;3.73;;;1.77;;
4786;SDS011;62338;48.832;9.422;2023-06-04T05:00:19;4.57;;;1.90;;
4786;SDS011;62338;48.832;9.422;2023-06-04T05:02:21;3.10;;;1.77;;
4786;SDS011;62338;48.832;9.422;2023-06-04T05:04:23;2.80;;;1.50;;
4786;SDS011;62338;48.832;9.422;2023-06-04T05:06:25;2.50;;;1.40;;
4786;SDS011;62338;48.832;9.422;2023-06-04T05:08:27;2.73;;;1.37;;
4786;SDS011;62338;48.832;9.422;2023-06-04T05:10:28;3.53;;;1.80;;
4786;SDS011;62338;48.832;9.422;2023-06-04T05:12:30;3.30;;;1.60;;
4786;SDS011;62338;48.832;9.422;2023-06-04T05:14:33;5.10;;;1.77;;
4786;SDS011;62338;48.832;9.422;2023-06-04T05:16:36;3.17;;;1.70;;
4786;SDS011;62338;48.832;9.422;2023-06-04T05:18:42;4.00;;;1.50;;
4786;SDS011;62338;48.832;9.422;2023-06-04T05:20:46;7.40;;;2.03;;
4786;SDS011;62338;48.832;9.422;2023-06-04T05:22:48;5.17;;;2.40;;
4786;SDS011;62338;48.832;9.422;2023-06-04T05:24:50;4.97;;;2.27;;
4786;SDS011;62338;48.832;9.422;2023-06-04T05:26:52;4.47;;;1.90;;
4786;SDS011;62338;48.832;9.422;2023-06-04T05:28:54;3.30;;;1.70;;
4786;SDS011;62338;48.832;9.422;2023-06-04T05:30:59;3.27;;;1.60;;
4786;SDS011;62338;48.832;9.422;2023-06-04T05:33:01;3.13;;;2.10;;
4786;SDS011;62338;48.832;9.422;2023-06-04T05:35:03;6.10;;;1.80;;
4786;SDS011;62338;48.832;9.422;2023-06-04T05:37:06;3.33;;;1.50;;
4786;SDS011;62338;48.832;9.422;2023-06-04T05:39:12;2.70;;;1.60;;
4786;SDS011;62338;48.832;9.422;2023-06-04T05:41:15;2.80;;;1.57;;
4786;SDS011;62338;48.832;9.422;2023-06-04T05:43:17;2.80;;;1.40;;
4786;SDS011;62338;48.832;9.422;2023-06-04T05:45:19;3.77;;;1.80;;
4786;SDS011;62338;48.832;9.422;2023-06-04T05:47:21;4.77;;;1.53;;
4786;SDS011;62338;48.832;9.422;2023-06-04T05:49:23;5.07;;;2.27;;
4786;SDS011;62338;48.832;9.422;2023-06-04T05:51:26;3.33;;;1.60;;
4786;SDS011;62338;48.832;9.422;2023-06-04T05:53:28;4.57;;;1.40;;
4786;SDS011;62338;48.832;9.422;2023-06-04T05:55:30;5.13;;;1.73;;
4786;SDS011;62338;48.832;9.422;2023-06-04T05:57:31;2.77;;;1.40;;
4786;SDS011;62338;48.832;9.422;2023-06-04T05:59:33;3.43;;;1.47;;
4786;SDS011;62338;48.832;9.422;2023-06-04T06:01:35;7.10;;;1.30;;
4786;SDS011;62338;48.832;9.422;2023-06-04T06:03:37;2.97;;;1.43;;
4786;SDS011;62338;48.832;9.422;2023-06-04T06:05:39;2.43;;;1.30;;
4786;SDS011;62338;48.832;9.422;2023-06-04T06:07:41;3.60;;;2.03;;
4786;SDS011;62338;48.832;9.422;2023-06-04T06:09:43;5.63;;;1.90;;
4786;SDS011;62338;48.832;9.422;2023-06-04T06:11:45;3.80;;;1.80;;
4786;SDS011;62338;48.832;9.422;2023-06-04T06:13:47;3.47;;;1.90;;
4786;SDS011;62338;48.832;9.422;2023-06-04T06:15:49;5.77;;;1.93;;
4786;SDS011;62338;48.832;9.422;2023-06-04T06:17:50;3.20;;;1.50;;
4786;SDS011;62338;48.832;9.422;2023-06-04T06:19:52;5.43;;;2.00;;
4786;SDS011;62338;48.832;9.422;2023-06-04T06:21:54;3.43;;;1.97;;
4786;SDS011;62338;48.832;9.422;2023-06-04T06:23:57;4.60;;;1.83;;
4786;SDS011;62338;48.832;9.422;2023-06-04T06:25:59;4.10;;;1.57;;
4786;SDS011;62338;48.832;9.422;2023-06-04T06:28:02;3.10;;;1.60;;
4786;SDS011;62338;48.832;9.422;2023-06-04T06:30:05;3.00;;;1.57;;
4786;SDS011;62338;48.832;9.422;2023-06-04T06:32:10;4.30;;;1.73;;
4786;SDS011;62338;48.832;9.422;2023-06-04T06:34:12;3.10;;;1.50;;
4786;SDS011;62338;48.832;9.422;2023-06-04T06:36:14;3.80;;;1.67;;
4786;SDS011;62338;48.832;9.422;2023-06-04T06:38:20;5.80;;;1.77;;
4786;SDS011;62338;48.832;9.422;2023-06-04T06:40:22;5.20;;;1.80;;
4786;SDS011;62338;48.832;9.422;2023-06-04T06:42:24;4.03;;;1.90;;
4786;SDS011;62338;48.832;9.422;2023-06-04T06:44:26;3.50;;;1.80;;
4786;SDS011;62338;48.832;9.422;2023-06-04T06:46:27;4.57;;;1.87;;
4786;SDS011;62338;48.832;9.422;2023-06-04T06:48:29;3.47;;;1.60;;
4786;SDS011;62338;48.832;9.422;2023-06-04T06:50:31;2.97;;;1.63;;
4786;SDS011;62338;48.832;9.422;2023-06-04T06:52:34;6.50;;;1.90;;
4786;SDS011;62338;48.832;9.422;2023-06-04T06:54:36;4.07;;;2.00;;
4786;SDS011;62338;48.832;9.422;2023-06-04T06:56:38;5.50;;;2.10;;
4786;SDS011;62338;48.832;9.422;2023-06-04T06:58:39;9.83;;;2.10;;
4786;SDS011;62338;48.832;9.422;2023-06-04T07:00:41;4.60;;;2.13;;
4786;SDS011;62338;48.832;9.422;2023-06-04T07:02:43;4.53;;;2.00;;
4786;SDS011;62338;48.832;9.422;2023-06-04T07:04:45;4.03;;;1.87;;
4786;SDS011;62338;48.832;9.422;2023-06-04T07:06:47;4.70;;;2.17;;
4786;SDS011;62338;48.832;9.422;2023-06-04T07:08:49;4.47;;;2.20;;
4786;SDS011;62338;48.832;9.422;2023-06-04T07:10:50;4.10;;;2.23;;
4786;SDS011;62338;48.832;9.422;2023-06-04T07:12:52;4.70;;;2.10;;
4786;SDS011;62338;48.832;9.422;2023-06-04T07:14:54;4.00;;;1.90;;
4786;SDS011;62338;48.832;9.422;2023-06-04T07:16:57;4.60;;;2.20;;
4786;SDS011;62338;48.832;9.422;2023-06-04T07:19:00;5.28;;;2.13;;
4786;SDS011;62338;48.832;9.422;2023-06-04T07:21:03;3.63;;;2.05;;
4786;SDS011;62338;48.832;9.422;2023-06-04T07:23:05;3.95;;;2.00;;
4786;SDS011;62338;48.832;9.422;2023-06-04T07:25:08;3.78;;;2.00;;
4786;SDS011;62338;48.832;9.422;2023-06-04T07:27:13;4.78;;;2.08;;
4786;SDS011;62338;48.832;9.422;2023-06-04T07:29:16;4.45;;;1.90;;
4786;SDS011;62338;48.832;9.422;2023-06-04T07:31:18;6.60;;;2.38;;
4786;SDS011;62338;48.832;9.422;2023-06-04T07:33:20;4.90;;;2.03;;
4786;SDS011;62338;48.832;9.422;2023-06-04T07:35:22;4.35;;;2.20;;
4786;SDS011;62338;48.832;9.422;2023-06-04T07:37:24;3.88;;;1.80;;
4786;SDS011;62338;48.832;9.422;2023-06-04T07:39:26;3.13;;;1.75;;
4786;SDS011;62338;48.832;9.422;2023-06-04T07:41:28;3.45;;;1.90;;
4786;SDS011;62338;48.832;9.422;2023-06-04T07:43:30;2.78;;;1.42;;
4786;SDS011;62338;48.832;9.422;2023-06-04T07:45:32;3.75;;;1.98;;
4786;SDS011;62338;48.832;9.422;2023-06-04T07:47:36;4.93;;;2.00;;
4786;SDS011;62338;48.832;9.422;2023-06-04T07:49:38;12.13;;;2.10;;
4786;SDS011;62338;48.832;9.422;2023-06-04T07:51:58;4.90;;;2.25;;
4786;SDS011;62338;48.832;9.422;2023-06-04T07:54:00;10.30;;;2.55;;
4786;SDS011;62338;48.832;9.422;2023-06-04T07:56:03;7.00;;;2.25;;
4786;SDS011;62338;48.832;9.422;2023-06-04T07:58:05;3.63;;;1.85;;
4786;SDS011;62338;48.832;9.422;2023-06-04T08:00:07;7.00;;;2.75;;
4786;SDS011;62338;48.832;9.422;2023-06-04T08:02:11;3.80;;;2.20;;
4786;SDS011;62338;48.832;9.422;2023-06-04T08:04:13;5.13;;;1.98;;
4786;SDS011;62338;48.832;9.422;2023-06-04T08:06:15;6.75;;;2.10;;
4786;SDS011;62338;48.832;9.422;2023-06-04T08:08:17;4.40;;;1.83;;
4786;SDS011;62338;48.832;9.422;2023-06-04T08:10:19;3.97;;;1.92;;
4786;SDS011;62338;48.832;9.422;2023-06-04T08:12:20;5.55;;;2.45;;
4786;SDS011;62338;48.832;9.422;2023-06-04T08:14:22;3.35;;;2.03;;
4786;SDS011;62338;48.832;9.422;2023-06-04T08:16:25;4.32;;;2.22;;
4786;SDS011;62338;48.832;9.422;2023-06-04T08:18:27;5.65;;;2.15;;
4786;SDS011;62338;48.832;9.422;2023-06-04T08:20:29;4.97;;;1.92;;
4786;SDS011;62338;48.832;9.422;2023-06-04T08:22:31;4.85;;;1.88;;
4786;SDS011;62338;48.832;9.422;2023-06-04T08:24:33;5.80;;;1.92;;
4786;SDS011;62338;48.832;9.422;2023-06-04T08:26:35;4.10;;;2.05;;
4786;SDS011;62338;48.832;9.422;2023-06-04T08:28:36;4.75;;;2.33;;
4786;SDS011;62338;48.832;9.422;2023-06-04T08:30:39;4.60;;;2.55;;
4786;SDS011;62338;48.832;9.422;2023-06-04T08:32:42;3.70;;;2.40;;
4786;SDS011;62338;48.832;9.422;2023-06-04T08:34:44;3.78;;;2.20;;
4786;SDS011;62338;48.832;9.422;2023-06-04T08:36:45;6.95;;;2.47;;
4786;SDS011;62338;48.832;9.422;2023-06-04T08:38:47;4.25;;;2.17;;
4786;SDS011;62338;48.832;9.422;2023-06-04T08:40:53;3.53;;;1.88;;
4786;SDS011;62338;48.832;9.422;2023-06-04T08:43:03;3.65;;;2.22;;
4786;SDS011;62338;48.832;9.422;2023-06-04T08:45:07;4.00;;;2.15;;
4786;SDS011;62338;48.832;9.422;2023-06-04T08:47:13;4.95;;;2.08;;
4786;SDS011;62338;48.832;9.422;2023-06-04T08:49:17;6.50;;;1.90;;
4786;SDS011;62338;48.832;9.422;2023-06-04T08:51:22;4.28;;;2.30;;
4786;SDS011;62338;48.832;9.422;2023-06-04T08:53:27;3.80;;;1.73;;
4786;SDS011;62338;48.832;9.422;2023-06-04T08:55:29;3.70;;;1.98;;
4786;SDS011;62338;48.832;9.422;2023-06-04T08:57:31;2.83;;;1.52;;
4786;SDS011;62338;48.832;9.422;2023-06-04T08:59:33;3.15;;;2.15;;
4786;SDS011;62338;48.832;9.422;2023-06-04T09:01:35;3.38;;;2.00;;
4786;SDS011;62338;48.832;9.422;2023-06-04T09:03:38;8.60;;;2.40;;
4786;SDS011;62338;48.832;9.422;2023-06-04T09:05:41;3.88;;;1.73;;
4786;SDS011;62338;48.832;9.422;2023-06-04T09:07:50;3.00;;;2.00;;
4786;SDS011;62338;48.832;9.422;2023-06-04T09:09:54;9.55;;;2.33;;
4786;SDS011;62338;48.832;9.422;2023-06-04T09:12:16;4.82;;;2.67;;
4786;SDS011;62338;48.832;9.422;2023-06-04T09:14:22;4.93;;;2.17;;
4786;SDS011;62338;48.832;9.422;2023-06-04T09:16:25;4.75;;;2.38;;
4786;SDS011;62338;48.832;9.422;2023-06-04T09:18:28;3.33;;;2.10;;
4786;SDS011;62338;48.832;9.422;2023-06-04T09:20:30;4.35;;;2.20;;
4786;SDS011;62338;48.832;9.422;2023-06-04T09:22:34;3.35;;;2.00;;
4786;SDS011;62338;48.832;9.422;2023-06-04T09:24:41;3.42;;;1.98;;
4786;SDS011;62338;48.832;9.422;2023-06-04T09:26:48;4.20;;;2.15;;
4786;SDS011;62338;48.832;9.422;2023-06-04T09:28:50;3.85;;;2.35;;
4786;SDS011;62338;48.832;9.422;2023-06-04T09:30:56;8.18;;;2.30;;
4786;SDS011;62338;48.832;9.422;2023-06-04T09:33:08;3.90;;;1.98;;
4786;SDS011;62338;48.832;9.422;2023-06-04T09:35:14;4.18;;;2.05;;
4786;SDS011;62338;48.832;9.422;2023-06-04T09:37:17;3.55;;;2.10;;
4786;SDS011;62338;48.832;9.422;2023-06-04T09:39:20;5.15;;;2.38;;
4786;SDS011;62338;48.832;9.422;2023-06-04T09:41:22;4.70;;;2.58;;
4786;SDS011;62338;48.832;9.422;2023-06-04T09:43:27;2.60;;;1.83;;
4786;SDS011;62338;48.832;9.422;2023-06-04T09:45:29;3.58;;;2.20;;
4786;SDS011;62338;48.832;9.422;2023-06-04T09:47:42;4.45;;;2.42;;
4786;SDS011;62338;48.832;9.422;2023-06-04T09:49:45;4.45;;;2.03;;
4786;SDS011;62338;48.832;9.422;2023-06-04T09:51:48;5.60;;;2.63;;
4786;SDS011;62338;48.832;9.422;2023-06-04T09:53:54;3.35;;;2.05;;
4786;SDS011;62338;48.832;9.422;2023-06-04T09:55:57;3.85;;;2.58;;
4786;SDS011;62338;48.832;9.422;2023-06-04T09:58:00;3.80;;;2.20;;
4786;SDS011;62338;48.832;9.422;2023-06-04T10:00:03;6.60;;;2.53;;
4786;SDS011;62338;48.832;9.422;2023-06-04T10:02:11;3.22;;;2.10;;
4786;SDS011;62338;48.832;9.422;2023-06-04T10:04:13;3.88;;;2.30;;
4786;SDS011;62338;48.832;9.422;2023-06-04T10:06:16;4.28;;;2.35;;
4786;SDS011;62338;48.832;9.422;2023-06-04T10:08:21;3.53;;;2.08;;
4786;SDS011;62338;48.832;9.422;2023-06-04T10:10:26;4.68;;;1.95;;
4786;SDS011;62338;48.832;9.422;2023-06-04T10:12:30;3.55;;;2.10;;
4786;SDS011;62338;48.832;9.422;2023-06-04T10:14:38;4.45;;;2.50;;
4786;SDS011;62338;48.832;9.422;2023-06-04T10:16:44;3.63;;;2.00;;
4786;SDS011;62338;48.832;9.422;2023-06-04T10:18:47;5.00;;;2.20;;
4786;SDS011;62338;48.832;9.422;2023-06-04T10:20:50;4.18;;;2.40;;
4786;SDS011;62338;48.832;9.422;2023-06-04T10:22:56;5.32;;;3.05;;
4786;SDS011;62338;48.832;9.422;2023-06-04T10:24:59;7.07;;;3.00;;
4786;SDS011;62338;48.832;9.422;2023-06-04T10:27:01;4.68;;;2.40;;
4786;SDS011;62338;48.832;9.422;2023-06-04T10:29:11;5.28;;;2.42;;
4786;SDS011;62338;48.832;9.422;2023-06-04T10:31:15;3.88;;;2.40;;
4786;SDS011;62338;48.832;9.422;2023-06-04T10:33:18;4.35;;;2.25;;
4786;SDS011;62338;48.832;9.422;2023-06-04T10:35:34;3.40;;;2.13;;
4786;SDS011;62338;48.832;9.422;2023-06-04T10:37:36;4.38;;;2.50;;
4786;SDS011;62338;48.832;9.422;2023-06-04T10:39:38;3.40;;;2.40;;
4786;SDS011;62338;48.832;9.422;2023-06-04T10:41:40;7.80;;;2.40;;
4786;SDS011;62338;48.832;9.422;2023-06-04T10:43:45;4.75;;;2.30;;
4786;SDS011;62338;48.832;9.422;2023-06-04T10:45:50;3.30;;;2.10;;
4786;SDS011;62338;48.832;9.422;2023-06-04T10:47:59;5.03;;;2.63;;
4786;SDS011;62338;48.832;9.422;2023-06-04T10:50:08;3.75;;;2.33;;
4786;SDS011;62338;48.832;9.422;2023-06-04T10:52:12;3.95;;;2.05;;
4786;SDS011;62338;48.832;9.422;2023-06-04T10:54:21;3.80;;;2.25;;
4786;SDS011;62338;48.832;9.422;2023-06-04T10:56:25;4.32;;;2.28;;
4786;SDS011;62338;48.832;9.422;2023-06-04T10:58:35;9.27;;;2.65;;
4786;SDS011;62338;48.832;9.422;2023-06-04T11:00:40;3.65;;;2.53;;
4786;SDS011;62338;48.832;9.422;2023-06-04T11:02:55;4.55;;;2.17;;
4786;SDS011;62338;48.832;9.422;2023-06-04T11:05:06;5.47;;;2.60;;
4786;SDS011;62338;48.832;9.422;2023-06-04T11:07:10;3.60;;;2.63;;
4786;SDS011;62338;48.832;9.422;2023-06-04T11:09:13;4.95;;;2.67;;
4786;SDS011;62338;48.832;9.422;2023-06-04T11:11:17;4.32;;;2.65;;
4786;SDS011;62338;48.832;9.422;2023-06-04T11:13:25;6.50;;;2.80;;
4786;SDS011;62338;48.832;9.422;2023-06-04T11:15:36;3.60;;;2.35;;
4786;SDS011;62338;48.832;9.422;2023-06-04T11:17:52;4.13;;;2.47;;
4786;SDS011;62338;48.832;9.422;2023-06-04T11:19:55;4.28;;;2.65;;
4786;SDS011;62338;48.832;9.422;2023-06-04T11:21:57;6.15;;;2.53;;
4786;SDS011;62338;48.832;9.422;2023-06-04T11:23:59;4.50;;;2.22;;
4786;SDS011;62338;48.832;9.422;2023-06-04T11:26:01;4.85;;;2.40;;
4786;SDS011;62338;48.832;9.422;2023-06-04T11:28:03;5.15;;;2.13;;
4786;SDS011;62338;48.832;9.422;2023-06-04T11:30:06;4.47;;;2.22;;
4786;SDS011;62338;48.832;9.422;2023-06-04T11:32:09;4.53;;;2.17;;
4786;SDS011;62338;48.832;9.422;2023-06-04T11:34:25;4.63;;;2.63;;
4786;SDS011;62338;48.832;9.422;2023-06-04T11:36:28;3.40;;;2.15;;
4786;SDS011;62338;48.832;9.422;2023-06-04T11:38:30;3.92;;;2.63;;
4786;SDS011;62338;48.832;9.422;2023-06-04T11:40:32;3.72;;;2.25;;
4786;SDS011;62338;48.832;9.422;2023-06-04T11:42:34;8.30;;;2.60;;
4786;SDS011;62338;48.832;9.422;2023-06-04T11:44:40;4.80;;;2.45;;
4786;SDS011;62338;48.832;9.422;2023-06-04T11:46:46;4.55;;;2.60;;
4786;SDS011;62338;48.832;9.422;2023-06-04T11:48:50;4.80;;;2.70;;
4786;SDS011;62338;48.832;9.422;2023-06-04T11:50:53;4.43;;;2.60;;
4786;SDS011;62338;48.832;9.422;2023-06-04T11:52:55;5.47;;;3.17;;
4786;SDS011;62338;48.832;9.422;2023-06-04T11:54:57;4.35;;;2.60;;
4786;SDS011;62338;48.832;9.422;2023-06-04T11:56:59;5.68;;;3.40;;
4786;SDS011;62338;48.832;9.422;2023-06-04T11:59:01;4.72;;;3.13;;
4786;SDS011;62338;48.832;9.422;2023-06-04T12:01:03;5.47;;;3.20;;
4786;SDS011;62338;48.832;9.422;2023-06-04T12:03:05;7.53;;;3.17;;
4786;SDS011;62338;48.832;9.422;2023-06-04T12:05:12;4.47;;;2.65;;
4786;SDS011;62338;48.832;9.422;2023-06-04T12:07:18;3.67;;;2.35;;
4786;SDS011;62338;48.832;9.422;2023-06-04T12:09:29;4.75;;;2.88;;
4786;SDS011;62338;48.832;9.422;2023-06-04T12:11:39;4.32;;;2.50;;
4786;SDS011;62338;48.832;9.422;2023-06-04T12:13:42;5.70;;;2.63;;
4786;SDS011;62338;48.832;9.422;2023-06-04T12:15:50;4.72;;;2.53;;
4786;SDS011;62338;48.832;9.422;2023-06-04T12:17:54;4.25;;;1.80;;
4786;SDS011;62338;48.832;9.422;2023-06-04T12:19:56;3.85;;;2.47;;
4786;SDS011;62338;48.832;9.422;2023-06-04T12:22:03;12.80;;;2.72;;
4786;SDS011;62338;48.832;9.422;2023-06-04T12:26:21;11.10;;;3.20;;
4786;SDS011;62338;48.832;9.422;2023-06-04T12:28:29;5.53;;;2.88;;
4786;SDS011;62338;48.832;9.422;2023-06-04T12:30:35;4.57;;;2.75;;
4786;SDS011;62338;48.832;9.422;2023-06-04T12:32:40;3.75;;;2.50;;
4786;SDS011;62338;48.832;9.422;2023-06-04T12:34:43;4.30;;;2.85;;
4786;SDS011;62338;48.832;9.422;2023-06-04T12:36:45;3.45;;;2.08;;
4786;SDS011;62338;48.832;9.422;2023-06-04T12:38:47;4.05;;;2.67;;
4786;SDS011;62338;48.832;9.422;2023-06-04T12:40:48;3.72;;;2.67;;
4786;SDS011;62338;48.832;9.422;2023-06-04T12:42:50;4.65;;;2.58;;